sensor_id;sensor_type;location;lat;lon;timestamp;pressure;altitude;pressure_sealevel;temperature;humidity
24962;BME280;12992;50.884;13.668;2022-07-15T00:02:00;97410.81;;;12.32;100.00
24962;BME280;12992;50.884;13.668;2022-07-15T00:04:25;97427.00;;;12.43;100.00
24962;BME280;12992;50.884;13.668;2022-07-15T00:06:51;97420.44;;;12.39;100.00
24962;BME280;12992;50.884;13.668;2022-07-15T00:09:16;97422.88;;;12.41;100.00
24962;BME280;12992;50.884;13.668;2022-07-15T00:11:41;97417.91;;;12.33;100.00
24962;BME280;12992;50.884;13.668;2022-07-15T00:14:07;97413.50;;;12.27;100.00
24962;BME280;12992;50.884;13.668;2022-07-15T00:16:32;97420.06;;;12.26;100.00
24962;BME280;12992;50.884;13.668;2022-07-15T00:18:57;97401.97;;;12.14;100.00
24962;BME280;12992;50.884;13.668;2022-07-15T00:21:23;97403.56;;;12.05;100.00
24962;BME280;12992;50.884;13.668;2022-07-15T00:23:48;97412.56;;;12.06;100.00
24962;BME280;12992;50.884;13.668;2022-07-15T00:26:14;97412.78;;;11.99;100.00
24962;BME280;12992;50.884;13.668;2022-07-15T00:28:39;97417.69;;;11.97;100.00
24962;BME280;12992;50.884;13.668;2022-07-15T00:31:04;97409.44;;;11.87;100.00
24962;BME280;12992;50.884;13.668;2022-07-15T00:33:30;97410.53;;;11.86;100.00
24962;BME280;12992;50.884;13.668;2022-07-15T00:35:55;97405.25;;;11.79;100.00
24962;BME280;12992;50.884;13.668;2022-07-15T00:38:21;97389.59;;;11.64;100.00
24962;BME280;12992;50.884;13.668;2022-07-15T00:40:48;97408.72;;;11.70;100.00
24962;BME280;12992;50.884;13.668;2022-07-15T00:43:14;97406.94;;;11.53;100.00
24962;BME280;12992;50.884;13.668;2022-07-15T00:45:42;97411.38;;;11.59;100.00
24962;BME280;12992;50.884;13.668;2022-07-15T00:48:07;97415.75;;;11.60;100.00
24962;BME280;12992;50.884;13.668;2022-07-15T00:50:33;97427.53;;;11.66;100.00
24962;BME280;12992;50.884;13.668;2022-07-15T00:53:04;97417.91;;;11.58;100.00
24962;BME280;12992;50.884;13.668;2022-07-15T00:55:32;97401.44;;;11.48;100.00
24962;BME280;12992;50.884;13.668;2022-07-15T00:58:01;97409.63;;;11.48;100.00
24962;BME280;12992;50.884;13.668;2022-07-15T01:00:30;97408.22;;;11.41;100.00
24962;BME280;12992;50.884;13.668;2022-07-15T01:02:59;97407.59;;;11.33;100.00
24962;BME280;12992;50.884;13.668;2022-07-15T01:05:25;97401.81;;;11.30;100.00
24962;BME280;12992;50.884;13.668;2022-07-15T01:07:51;97386.94;;;11.11;100.00
24962;BME280;12992;50.884;13.668;2022-07-15T01:10:19;97392.91;;;11.07;100.00
24962;BME280;12992;50.884;13.668;2022-07-15T01:12:48;97392.84;;;11.02;100.00
24962;BME280;12992;50.884;13.668;2022-07-15T01:15:16;97411.50;;;11.16;100.00
24962;BME280;12992;50.884;13.668;2022-07-15T01:17:43;97415.25;;;11.10;100.00
24962;BME280;12992;50.884;13.668;2022-07-15T01:20:12;97417.22;;;11.14;100.00
24962;BME280;12992;50.884;13.668;2022-07-15T01:22:50;97418.06;;;11.15;100.00
24962;BME280;12992;50.884;13.668;2022-07-15T01:25:15;97416.72;;;11.17;100.00
24962;BME280;12992;50.884;13.668;2022-07-15T01:27:41;97436.22;;;11.31;100.00
24962;BME280;12992;50.884;13.668;2022-07-15T01:30:08;97441.16;;;11.39;100.00
24962;BME280;12992;50.884;13.668;2022-07-15T01:32:34;97435.16;;;11.37;100.00
24962;BME280;12992;50.884;13.668;2022-07-15T01:34:59;97428.78;;;11.26;100.00
24962;BME280;12992;50.884;13.668;2022-07-15T01:37:26;97427.34;;;11.19;100.00
24962;BME280;12992;50.884;13.668;2022-07-15T01:39:55;97453.59;;;11.25;100.00
24962;BME280;12992;50.884;13.668;2022-07-15T01:42:20;97426.69;;;11.06;100.00
24962;BME280;12992;50.884;13.668;2022-07-15T01:44:46;97430.44;;;11.00;100.00
24962;BME280;12992;50.884;13.668;2022-07-15T01:47:12;97432.03;;;10.96;100.00
24962;BME280;12992;50.884;13.668;2022-07-15T01:49:37;97423.66;;;10.81;100.00
24962;BME280;12992;50.884;13.668;2022-07-15T01:52:11;97416.56;;;10.58;100.00
24962;BME280;12992;50.884;13.668;2022-07-15T01:54:39;97422.31;;;10.40;100.00
24962;BME280;12992;50.884;13.668;2022-07-15T01:57:05;97419.66;;;10.23;100.00
24962;BME280;12992;50.884;13.668;2022-07-15T01:59:38;97426.91;;;10.17;100.00
24962;BME280;12992;50.884;13.668;2022-07-15T02:02:03;97436.72;;;10.18;100.00
24962;BME280;12992;50.884;13.668;2022-07-15T02:04:30;97446.38;;;10.26;100.00
24962;BME280;12992;50.884;13.668;2022-07-15T02:06:55;97459.38;;;10.41;100.00
24962;BME280;12992;50.884;13.668;2022-07-15T02:09:22;97468.66;;;10.62;100.00
24962;BME280;12992;50.884;13.668;2022-07-15T02:11:50;97472.38;;;10.77;100.00
24962;BME280;12992;50.884;13.668;2022-07-15T02:14:16;97463.28;;;10.89;100.00
24962;BME280;12992;50.884;13.668;2022-07-15T02:16:42;97465.78;;;10.95;100.00
24962;BME280;12992;50.884;13.668;2022-07-15T02:19:14;97465.78;;;10.95;100.00
24962;BME280;12992;50.884;13.668;2022-07-15T02:21:39;97465.56;;;10.97;100.00
24962;BME280;12992;50.884;13.668;2022-07-15T02:24:05;97466.94;;;10.99;100.00
24962;BME280;12992;50.884;13.668;2022-07-15T02:26:31;97462.59;;;11.03;100.00
24962;BME280;12992;50.884;13.668;2022-07-15T02:28:56;97469.72;;;11.04;100.00
24962;BME280;12992;50.884;13.668;2022-07-15T02:31:25;97467.50;;;11.01;100.00
24962;BME280;12992;50.884;13.668;2022-07-15T02:33:51;97452.75;;;10.97;100.00
24962;BME280;12992;50.884;13.668;2022-07-15T02:36:16;97450.66;;;10.83;100.00
24962;BME280;12992;50.884;13.668;2022-07-15T02:38:44;97450.03;;;10.75;100.00
24962;BME280;12992;50.884;13.668;2022-07-15T02:41:11;97443.25;;;10.56;100.00
24962;BME280;12992;50.884;13.668;2022-07-15T02:43:41;97438.66;;;10.40;100.00
24962;BME280;12992;50.884;13.668;2022-07-15T02:46:09;97438.78;;;10.28;100.00
24962;BME280;12992;50.884;13.668;2022-07-15T02:48:35;97453.47;;;10.27;100.00
24962;BME280;12992;50.884;13.668;2022-07-15T02:51:02;97463.13;;;10.35;100.00
24962;BME280;12992;50.884;13.668;2022-07-15T02:53:27;97459.41;;;10.24;100.00
24962;BME280;12992;50.884;13.668;2022-07-15T02:55:58;97477.28;;;10.37;100.00
24962;BME280;12992;50.884;13.668;2022-07-15T02:58:24;97475.13;;;10.39;100.00
24962;BME280;12992;50.884;13.668;2022-07-15T03:00:50;97459.41;;;10.24;100.00
24962;BME280;12992;50.884;13.668;2022-07-15T03:03:16;97475.66;;;10.36;100.00
24962;BME280;12992;50.884;13.668;2022-07-15T03:05:41;97476.47;;;10.36;100.00
24962;BME280;12992;50.884;13.668;2022-07-15T03:08:08;97486.03;;;10.39;100.00
24962;BME280;12992;50.884;13.668;2022-07-15T03:10:34;97486.13;;;10.44;100.00
24962;BME280;12992;50.884;13.668;2022-07-15T03:13:01;97488.56;;;10.45;100.00
24962;BME280;12992;50.884;13.668;2022-07-15T03:15:26;97486.41;;;10.47;100.00
24962;BME280;12992;50.884;13.668;2022-07-15T03:17:52;97489.44;;;10.51;100.00
24962;BME280;12992;50.884;13.668;2022-07-15T03:20:17;97488.88;;;10.49;100.00
24962;BME280;12992;50.884;13.668;2022-07-15T03:22:46;97485.78;;;10.40;100.00
24962;BME280;12992;50.884;13.668;2022-07-15T03:25:12;97488.09;;;10.32;100.00
24962;BME280;12992;50.884;13.668;2022-07-15T03:27:37;97483.97;;;10.29;100.00
24962;BME280;12992;50.884;13.668;2022-07-15T03:30:05;97482.47;;;10.21;100.00
24962;BME280;12992;50.884;13.668;2022-07-15T03:32:31;97494.22;;;10.22;100.00
24962;BME280;12992;50.884;13.668;2022-07-15T03:34:56;97493.31;;;10.16;100.00
24962;BME280;12992;50.884;13.668;2022-07-15T03:37:24;97495.78;;;10.18;100.00
24962;BME280;12992;50.884;13.668;2022-07-15T03:39:49;97497.81;;;10.11;100.00
24962;BME280;12992;50.884;13.668;2022-07-15T03:42:15;97514.31;;;10.21;100.00
24962;BME280;12992;50.884;13.668;2022-07-15T03:44:42;97504.66;;;10.13;100.00
24962;BME280;12992;50.884;13.668;2022-07-15T03:47:07;97521.66;;;10.20;100.00
24962;BME280;12992;50.884;13.668;2022-07-15T03:49:34;97517.84;;;10.21;100.00
24962;BME280;12992;50.884;13.668;2022-07-15T03:51:59;97511.03;;;10.19;100.00
24962;BME280;12992;50.884;13.668;2022-07-15T03:54:25;97528.25;;;10.41;100.00
24962;BME280;12992;50.884;13.668;2022-07-15T03:56:50;97534.59;;;10.64;100.00
24962;BME280;12992;50.884;13.668;2022-07-15T03:59:18;97534.84;;;10.84;100.00
24962;BME280;12992;50.884;13.668;2022-07-15T04:01:47;97535.13;;;11.04;100.00
24962;BME280;12992;50.884;13.668;2022-07-15T04:04:14;97539.09;;;11.19;100.00
24962;BME280;12992;50.884;13.668;2022-07-15T04:06:39;97539.22;;;11.29;100.00
24962;BME280;12992;50.884;13.668;2022-07-15T04:09:04;97544.34;;;11.47;100.00
24962;BME280;12992;50.884;13.668;2022-07-15T04:11:30;97546.13;;;11.58;100.00
24962;BME280;12992;50.884;13.668;2022-07-15T04:13:55;97546.16;;;11.63;100.00
24962;BME280;12992;50.884;13.668;2022-07-15T04:16:21;97565.00;;;11.87;100.00
24962;BME280;12992;50.884;13.668;2022-07-15T04:18:48;97567.13;;;12.12;100.00
24962;BME280;12992;50.884;13.668;2022-07-15T04:21:16;97573.63;;;12.38;100.00
24962;BME280;12992;50.884;13.668;2022-07-15T04:23:42;97569.69;;;12.56;100.00
24962;BME280;12992;50.884;13.668;2022-07-15T04:26:09;97567.84;;;12.66;100.00
24962;BME280;12992;50.884;13.668;2022-07-15T04:28:34;97578.28;;;12.80;100.00
24962;BME280;12992;50.884;13.668;2022-07-15T04:31:00;97569.03;;;12.86;100.00
24962;BME280;12992;50.884;13.668;2022-07-15T04:33:32;97572.31;;;12.83;100.00
24962;BME280;12992;50.884;13.668;2022-07-15T04:35:57;97557.78;;;12.77;100.00
24962;BME280;12992;50.884;13.668;2022-07-15T04:38:23;97565.97;;;12.77;100.00
24962;BME280;12992;50.884;13.668;2022-07-15T04:40:48;97564.13;;;12.88;100.00
24962;BME280;12992;50.884;13.668;2022-07-15T04:43:17;97589.38;;;13.05;100.00
24962;BME280;12992;50.884;13.668;2022-07-15T04:45:45;97587.34;;;13.32;100.00
24962;BME280;12992;50.884;13.668;2022-07-15T04:48:13;97594.78;;;13.42;100.00
24962;BME280;12992;50.884;13.668;2022-07-15T04:50:58;97578.63;;;13.41;100.00
24962;BME280;12992;50.884;13.668;2022-07-15T04:53:25;97599.50;;;13.52;100.00
24962;BME280;12992;50.884;13.668;2022-07-15T04:55:52;97589.38;;;13.52;100.00
24962;BME280;12992;50.884;13.668;2022-07-15T04:58:17;97597.03;;;13.55;100.00
24962;BME280;12992;50.884;13.668;2022-07-15T05:00:46;97610.25;;;13.84;100.00
24962;BME280;12992;50.884;13.668;2022-07-15T05:03:13;97619.34;;;14.00;100.00
24962;BME280;12992;50.884;13.668;2022-07-15T05:05:39;97620.47;;;14.14;100.00
24962;BME280;12992;50.884;13.668;2022-07-15T05:08:06;97617.75;;;14.14;100.00
24962;BME280;12992;50.884;13.668;2022-07-15T05:10:34;97624.03;;;14.20;100.00
24962;BME280;12992;50.884;13.668;2022-07-15T05:13:04;97619.13;;;14.27;100.00
24962;BME280;12992;50.884;13.668;2022-07-15T05:15:31;97629.25;;;14.26;100.00
24962;BME280;12992;50.884;13.668;2022-07-15T05:18:06;97635.28;;;14.33;100.00
24962;BME280;12992;50.884;13.668;2022-07-15T05:20:31;97626.22;;;14.28;100.00
24962;BME280;12992;50.884;13.668;2022-07-15T05:22:57;97648.50;;;14.52;100.00
24962;BME280;12992;50.884;13.668;2022-07-15T05:25:30;97655.63;;;14.58;100.00
24962;BME280;12992;50.884;13.668;2022-07-15T05:27:55;97652.59;;;14.54;100.00
24962;BME280;12992;50.884;13.668;2022-07-15T05:30:23;97652.59;;;14.59;100.00
24962;BME280;12992;50.884;13.668;2022-07-15T05:32:48;97661.66;;;14.70;100.00
24962;BME280;12992;50.884;13.668;2022-07-15T05:35:19;97656.97;;;14.91;97.87
24962;BME280;12992;50.884;13.668;2022-07-15T05:37:46;97660.56;;;14.96;97.48
24962;BME280;12992;50.884;13.668;2022-07-15T05:40:17;97659.47;;;15.02;97.41
24962;BME280;12992;50.884;13.668;2022-07-15T05:42:49;97654.78;;;15.03;97.51
24962;BME280;12992;50.884;13.668;2022-07-15T05:45:16;97644.09;;;14.91;97.99
24962;BME280;12992;50.884;13.668;2022-07-15T05:47:50;97630.69;;;14.85;98.12
24962;BME280;12992;50.884;13.668;2022-07-15T05:50:18;97644.09;;;14.86;97.68
24962;BME280;12992;50.884;13.668;2022-07-15T05:52:44;97663.28;;;15.07;97.80
24962;BME280;12992;50.884;13.668;2022-07-15T05:55:11;97669.28;;;15.29;97.58
24962;BME280;12992;50.884;13.668;2022-07-15T05:57:36;97637.78;;;15.06;96.28
24962;BME280;12992;50.884;13.668;2022-07-15T06:00:03;97632.34;;;14.76;98.45
24962;BME280;12992;50.884;13.668;2022-07-15T06:02:39;97670.66;;;15.16;97.80
24962;BME280;12992;50.884;13.668;2022-07-15T06:05:07;97679.69;;;15.32;97.27
24962;BME280;12992;50.884;13.668;2022-07-15T06:07:33;97678.03;;;15.41;97.05
24962;BME280;12992;50.884;13.668;2022-07-15T06:09:59;97669.28;;;15.24;97.51
24962;BME280;12992;50.884;13.668;2022-07-15T06:12:24;97677.50;;;15.34;97.24
24962;BME280;12992;50.884;13.668;2022-07-15T06:14:50;97659.97;;;15.20;97.70
24962;BME280;12992;50.884;13.668;2022-07-15T06:17:18;97675.28;;;15.36;95.62
24962;BME280;12992;50.884;13.668;2022-07-15T06:19:44;97681.34;;;15.38;97.19
24962;BME280;12992;50.884;13.668;2022-07-15T06:22:09;97682.97;;;15.44;96.34
24962;BME280;12992;50.884;13.668;2022-07-15T06:24:34;97677.22;;;15.36;96.10
24962;BME280;12992;50.884;13.668;2022-07-15T06:27:00;97670.94;;;15.30;95.75
24962;BME280;12992;50.884;13.668;2022-07-15T06:29:25;97677.53;;;15.29;96.00
24962;BME280;12992;50.884;13.668;2022-07-15T06:31:53;97684.91;;;15.39;96.05
24962;BME280;12992;50.884;13.668;2022-07-15T06:34:20;97684.09;;;15.38;96.82
24962;BME280;12992;50.884;13.668;2022-07-15T06:36:46;97685.44;;;15.36;97.63
24962;BME280;12992;50.884;13.668;2022-07-15T06:39:11;97675.84;;;15.33;96.83
24962;BME280;12992;50.884;13.668;2022-07-15T06:41:37;97670.66;;;15.32;97.82
24962;BME280;12992;50.884;13.668;2022-07-15T06:44:02;97704.09;;;15.64;98.35
24962;BME280;12992;50.884;13.668;2022-07-15T06:46:42;97687.59;;;15.69;94.12
24962;BME280;12992;50.884;13.668;2022-07-15T06:49:08;97692.81;;;15.66;94.95
24962;BME280;12992;50.884;13.668;2022-07-15T06:51:33;97683.22;;;15.58;94.09
24962;BME280;12992;50.884;13.668;2022-07-15T06:54:01;97668.13;;;15.45;94.51
24962;BME280;12992;50.884;13.668;2022-07-15T06:56:29;97682.41;;;15.47;94.67
24962;BME280;12992;50.884;13.668;2022-07-15T06:58:55;97700.75;;;15.72;92.26
24962;BME280;12992;50.884;13.668;2022-07-15T07:01:20;97682.66;;;15.51;94.03
24962;BME280;12992;50.884;13.668;2022-07-15T07:03:45;97698.00;;;15.72;93.05
24962;BME280;12992;50.884;13.668;2022-07-15T07:06:11;97693.38;;;15.57;92.53
24962;BME280;12992;50.884;13.668;2022-07-15T07:08:36;97675.81;;;15.43;93.02
24962;BME280;12992;50.884;13.668;2022-07-15T07:11:02;97677.50;;;15.34;93.28
24962;BME280;12992;50.884;13.668;2022-07-15T07:13:27;97702.72;;;15.56;95.26
24962;BME280;12992;50.884;13.668;2022-07-15T07:15:53;97724.06;;;15.85;92.64
24962;BME280;12992;50.884;13.668;2022-07-15T07:18:18;97721.75;;;16.07;92.79
24962;BME280;12992;50.884;13.668;2022-07-15T07:20:43;97721.38;;;16.34;89.59
24962;BME280;12992;50.884;13.668;2022-07-15T07:23:09;97704.34;;;16.32;86.92
24962;BME280;12992;50.884;13.668;2022-07-15T07:25:35;97711.69;;;16.42;89.21
24962;BME280;12992;50.884;13.668;2022-07-15T07:28:00;97694.97;;;16.33;86.10
24962;BME280;12992;50.884;13.668;2022-07-15T07:30:29;97693.91;;;16.29;85.47
24962;BME280;12992;50.884;13.668;2022-07-15T07:32:54;97682.72;;;16.15;85.08
24962;BME280;12992;50.884;13.668;2022-07-15T07:35:20;97701.34;;;16.29;86.01
24962;BME280;12992;50.884;13.668;2022-07-15T07:37:45;97707.66;;;16.34;83.92
24962;BME280;12992;50.884;13.668;2022-07-15T07:40:10;97692.22;;;16.33;81.85
24962;BME280;12992;50.884;13.668;2022-07-15T07:42:36;97696.06;;;16.37;81.01
24962;BME280;12992;50.884;13.668;2022-07-15T07:45:02;97698.53;;;16.39;81.02
24962;BME280;12992;50.884;13.668;2022-07-15T07:47:27;97698.75;;;16.48;81.21
24962;BME280;12992;50.884;13.668;2022-07-15T07:49:52;97702.00;;;16.55;80.63
24962;BME280;12992;50.884;13.668;2022-07-15T07:52:18;97720.63;;;16.73;80.59
24962;BME280;12992;50.884;13.668;2022-07-15T07:54:43;97708.28;;;16.70;78.19
24962;BME280;12992;50.884;13.668;2022-07-15T07:57:10;97690.97;;;16.60;78.93
24962;BME280;12992;50.884;13.668;2022-07-15T07:59:35;97707.59;;;16.84;77.53
24962;BME280;12992;50.884;13.668;2022-07-15T08:02:01;97686.75;;;16.78;76.72
24962;BME280;12992;50.884;13.668;2022-07-15T08:04:29;97704.44;;;17.01;76.62
24962;BME280;12992;50.884;13.668;2022-07-15T08:06:56;97715.03;;;17.17;75.98
24962;BME280;12992;50.884;13.668;2022-07-15T08:09:21;97725.31;;;17.65;76.40
24962;BME280;12992;50.884;13.668;2022-07-15T08:11:46;97749.22;;;17.98;75.09
24962;BME280;12992;50.884;13.668;2022-07-15T08:14:11;97749.31;;;18.79;72.99
24962;BME280;12992;50.884;13.668;2022-07-15T08:16:37;97754.97;;;19.39;70.20
24962;BME280;12992;50.884;13.668;2022-07-15T08:19:07;97734.94;;;19.93;68.63
24962;BME280;12992;50.884;13.668;2022-07-15T08:21:32;97741.69;;;20.28;67.14
24962;BME280;12992;50.884;13.668;2022-07-15T08:23:57;97750.22;;;21.32;64.12
24962;BME280;12992;50.884;13.668;2022-07-15T08:26:23;97705.22;;;21.12;63.24
24962;BME280;12992;50.884;13.668;2022-07-15T08:28:50;97684.63;;;20.82;63.76
24962;BME280;12992;50.884;13.668;2022-07-15T08:31:15;97732.47;;;21.64;63.86
24962;BME280;12992;50.884;13.668;2022-07-15T08:33:41;97740.56;;;22.79;61.26
24962;BME280;12992;50.884;13.668;2022-07-15T08:36:07;97736.00;;;23.44;59.07
24962;BME280;12992;50.884;13.668;2022-07-15T08:38:33;97751.38;;;25.24;55.35
24962;BME280;12992;50.884;13.668;2022-07-15T08:40:58;97717.84;;;25.32;55.06
24962;BME280;12992;50.884;13.668;2022-07-15T08:43:23;97720.50;;;25.08;56.19
24962;BME280;12992;50.884;13.668;2022-07-15T08:45:49;97716.22;;;25.31;55.79
24962;BME280;12992;50.884;13.668;2022-07-15T08:48:15;97726.38;;;25.48;55.42
24962;BME280;12992;50.884;13.668;2022-07-15T08:50:42;97739.72;;;26.33;54.17
24962;BME280;12992;50.884;13.668;2022-07-15T08:53:08;97720.69;;;25.45;54.19
24962;BME280;12992;50.884;13.668;2022-07-15T08:55:34;97745.63;;;26.19;54.37
24962;BME280;12992;50.884;13.668;2022-07-15T08:57:59;97700.72;;;26.12;52.50
24962;BME280;12992;50.884;13.668;2022-07-15T09:00:26;97721.19;;;26.04;53.02
24962;BME280;12992;50.884;13.668;2022-07-15T09:02:56;97714.78;;;25.91;52.55
24962;BME280;12992;50.884;13.668;2022-07-15T09:08:10;97726.69;;;28.14;50.23
24962;BME280;12992;50.884;13.668;2022-07-15T09:10:56;97718.66;;;27.97;50.05
24962;BME280;12992;50.884;13.668;2022-07-15T09:13:25;97694.66;;;25.53;51.56
24962;BME280;12992;50.884;13.668;2022-07-15T09:15:51;97677.44;;;24.34;53.73
24962;BME280;12992;50.884;13.668;2022-07-15T09:18:20;97696.88;;;24.43;54.82
24962;BME280;12992;50.884;13.668;2022-07-15T09:20:47;97675.19;;;23.89;54.52
24962;BME280;12992;50.884;13.668;2022-07-15T09:23:18;97656.28;;;23.10;55.35
24962;BME280;12992;50.884;13.668;2022-07-15T09:25:47;97695.69;;;23.76;55.94
24962;BME280;12992;50.884;13.668;2022-07-15T09:28:13;97723.56;;;25.15;54.90
24962;BME280;12992;50.884;13.668;2022-07-15T09:30:43;97724.47;;;26.31;51.69
24962;BME280;12992;50.884;13.668;2022-07-15T09:33:35;97742.59;;;28.10;50.48
24962;BME280;12992;50.884;13.668;2022-07-15T09:41:01;97675.19;;;24.78;52.94
24962;BME280;12992;50.884;13.668;2022-07-15T09:43:28;97666.63;;;23.65;55.11
24962;BME280;12992;50.884;13.668;2022-07-15T09:46:00;97695.63;;;23.38;57.00
24962;BME280;12992;50.884;13.668;2022-07-15T09:48:26;97661.06;;;21.69;60.54
24962;BME280;12992;50.884;13.668;2022-07-15T09:51:00;97643.03;;;20.51;61.23
24962;BME280;12992;50.884;13.668;2022-07-15T09:53:26;97677.47;;;20.81;62.39
24962;BME280;12992;50.884;13.668;2022-07-15T09:55:52;97673.31;;;20.92;62.01
24962;BME280;12992;50.884;13.668;2022-07-15T09:58:18;97685.03;;;21.34;61.01
24962;BME280;12992;50.884;13.668;2022-07-15T10:00:44;97658.16;;;20.68;61.15
24962;BME280;12992;50.884;13.668;2022-07-15T10:03:09;97659.19;;;20.58;62.03
24962;BME280;12992;50.884;13.668;2022-07-15T10:05:35;97654.66;;;20.26;63.00
24962;BME280;12992;50.884;13.668;2022-07-15T10:08:03;97639.94;;;19.89;62.87
24962;BME280;12992;50.884;13.668;2022-07-15T10:10:32;97695.06;;;20.49;64.29
24962;BME280;12992;50.884;13.668;2022-07-15T10:16:23;97712.25;;;21.63;61.16
24962;BME280;12992;50.884;13.668;2022-07-15T10:19:18;97705.00;;;22.16;60.21
24962;BME280;12992;50.884;13.668;2022-07-15T10:22:01;97673.25;;;21.99;58.52
24962;BME280;12992;50.884;13.668;2022-07-15T10:27:19;97661.31;;;21.51;59.50
24962;BME280;12992;50.884;13.668;2022-07-15T10:29:50;97664.31;;;21.32;60.83
24962;BME280;12992;50.884;13.668;2022-07-15T10:32:15;97672.66;;;21.18;62.61
24962;BME280;12992;50.884;13.668;2022-07-15T10:34:41;97660.88;;;21.04;60.08
24962;BME280;12992;50.884;13.668;2022-07-15T10:37:08;97646.94;;;20.73;61.28
24962;BME280;12992;50.884;13.668;2022-07-15T10:39:55;97667.28;;;20.68;61.69
24962;BME280;12992;50.884;13.668;2022-07-15T10:42:22;97632.84;;;20.24;61.68
24962;BME280;12992;50.884;13.668;2022-07-15T10:47:26;97659.38;;;20.12;63.59
24962;BME280;12992;50.884;13.668;2022-07-15T10:49:52;97661.38;;;20.33;63.42
24962;BME280;12992;50.884;13.668;2022-07-15T10:52:18;97685.34;;;20.88;62.36
24962;BME280;12992;50.884;13.668;2022-07-15T10:57:14;97652.72;;;21.07;61.16
24962;BME280;12992;50.884;13.668;2022-07-15T10:59:49;97712.47;;;22.72;57.93
24962;BME280;12992;50.884;13.668;2022-07-15T11:02:16;97716.25;;;24.30;54.11
24962;BME280;12992;50.884;13.668;2022-07-15T11:04:43;97736.91;;;26.21;53.40
24962;BME280;12992;50.884;13.668;2022-07-15T11:09:46;97673.28;;;24.11;53.59
24962;BME280;12992;50.884;13.668;2022-07-15T11:12:12;97650.88;;;22.70;55.99
24962;BME280;12992;50.884;13.668;2022-07-15T11:14:42;97642.72;;;21.82;56.70
24962;BME280;12992;50.884;13.668;2022-07-15T11:17:09;97660.59;;;21.67;58.54
24962;BME280;12992;50.884;13.668;2022-07-15T11:19:35;97707.19;;;23.49;57.98
24962;BME280;12992;50.884;13.668;2022-07-15T11:22:01;97722.88;;;25.39;55.58
24962;BME280;12992;50.884;13.668;2022-07-15T11:24:28;97694.19;;;25.72;53.08
24962;BME280;12992;50.884;13.668;2022-07-15T11:26:53;97666.47;;;24.58;53.25
24962;BME280;12992;50.884;13.668;2022-07-15T11:29:18;97657.44;;;23.73;54.90
24962;BME280;12992;50.884;13.668;2022-07-15T11:31:44;97661.91;;;23.48;55.36
24962;BME280;12992;50.884;13.668;2022-07-15T11:34:10;97684.03;;;23.91;54.49
24962;BME280;12992;50.884;13.668;2022-07-15T11:36:35;97714.34;;;25.68;52.11
24962;BME280;12992;50.884;13.668;2022-07-15T11:39:01;97672.50;;;25.56;51.93
24962;BME280;12992;50.884;13.668;2022-07-15T11:41:26;97634.75;;;23.62;52.15
24962;BME280;12992;50.884;13.668;2022-07-15T11:44:11;97643.03;;;22.64;54.79
24962;BME280;12992;50.884;13.668;2022-07-15T11:46:56;97626.75;;;21.48;58.24
24962;BME280;12992;50.884;13.668;2022-07-15T11:49:29;97627.06;;;20.71;61.17
24962;BME280;12992;50.884;13.668;2022-07-15T11:51:56;97623.28;;;20.30;60.88
24962;BME280;12992;50.884;13.668;2022-07-15T11:54:22;97624.59;;;20.47;62.15
24962;BME280;12992;50.884;13.668;2022-07-15T11:57:01;97679.78;;;21.64;62.38
24962;BME280;12992;50.884;13.668;2022-07-15T11:59:27;97691.88;;;22.82;59.29
24962;BME280;12992;50.884;13.668;2022-07-15T12:02:09;97642.50;;;22.18;59.51
24962;BME280;12992;50.884;13.668;2022-07-15T12:04:37;97653.41;;;21.66;60.82
24962;BME280;12992;50.884;13.668;2022-07-15T12:07:03;97617.66;;;20.58;62.30
24962;BME280;12992;50.884;13.668;2022-07-15T12:09:43;97630.34;;;20.23;64.21
24962;BME280;12992;50.884;13.668;2022-07-15T12:12:09;97641.13;;;20.11;64.96
24962;BME280;12992;50.884;13.668;2022-07-15T12:14:35;97614.94;;;19.94;65.60
24962;BME280;12992;50.884;13.668;2022-07-15T12:17:01;97688.22;;;21.50;65.08
24962;BME280;12992;50.884;13.668;2022-07-15T12:19:29;97683.38;;;22.78;59.90
24962;BME280;12992;50.884;13.668;2022-07-15T12:21:56;97644.63;;;22.13;59.53
24962;BME280;12992;50.884;13.668;2022-07-15T12:24:26;97669.47;;;21.87;61.03
24962;BME280;12992;50.884;13.668;2022-07-15T12:27:01;97720.75;;;24.14;57.94
24962;BME280;12992;50.884;13.668;2022-07-15T12:29:28;97673.41;;;24.73;54.06
24962;BME280;12992;50.884;13.668;2022-07-15T12:32:05;97663.75;;;24.20;55.61
24962;BME280;12992;50.884;13.668;2022-07-15T12:37:11;97630.63;;;22.26;57.33
24962;BME280;12992;50.884;13.668;2022-07-15T12:40:04;97638.09;;;21.38;59.54
24962;BME280;12992;50.884;13.668;2022-07-15T12:42:42;97642.72;;;20.98;61.48
24962;BME280;12992;50.884;13.668;2022-07-15T12:45:15;97628.66;;;20.85;61.68
24962;BME280;12992;50.884;13.668;2022-07-15T12:48:06;97654.22;;;21.36;61.36
24962;BME280;12992;50.884;13.668;2022-07-15T12:50:57;97672.50;;;22.16;60.38
24962;BME280;12992;50.884;13.668;2022-07-15T12:53:25;97697.47;;;23.89;58.28
24962;BME280;12992;50.884;13.668;2022-07-15T12:55:53;97696.78;;;24.81;54.50
24962;BME280;12992;50.884;13.668;2022-07-15T12:58:26;97694.28;;;25.42;53.51
24962;BME280;12992;50.884;13.668;2022-07-15T13:01:12;97695.25;;;25.46;53.01
24962;BME280;12992;50.884;13.668;2022-07-15T13:03:38;97665.94;;;24.65;52.81
24962;BME280;12992;50.884;13.668;2022-07-15T13:06:04;97693.84;;;25.52;52.44
24962;BME280;12992;50.884;13.668;2022-07-15T13:08:35;97717.28;;;26.54;49.78
24962;BME280;12992;50.884;13.668;2022-07-15T13:11:03;97708.72;;;28.15;50.50
24962;BME280;12992;50.884;13.668;2022-07-15T13:13:31;97656.69;;;27.38;47.19